sensor_id;sensor_type;location;lat;lon;timestamp;pressure;altitude;pressure_sealevel;temperature;humidity
63204;BME280;49297;43.210;27.914;2022-09-09T00:01:10;101431.97;;;21.77;58.03
63204;BME280;49297;43.210;27.914;2022-09-09T00:03:47;101426.59;;;21.77;57.37
63204;BME280;49297;43.210;27.914;2022-09-09T00:06:23;101429.09;;;21.79;57.60
63204;BME280;49297;43.210;27.914;2022-09-09T00:09:18;101425.16;;;21.81;57.30
63204;BME280;49297;43.210;27.914;2022-09-09T00:11:51;101426.00;;;21.82;57.23
63204;BME280;49297;43.210;27.914;2022-09-09T00:17:12;101421.25;;;21.84;57.63
63204;BME280;49297;43.210;27.914;2022-09-09T00:22:23;101409.00;;;21.81;57.54
63204;BME280;49297;43.210;27.914;2022-09-09T00:25:10;101409.41;;;21.78;57.43
63204;BME280;49297;43.210;27.914;2022-09-09T00:27:47;101399.63;;;21.77;57.23
63204;BME280;49297;43.210;27.914;2022-09-09T00:30:23;101400.47;;;21.78;57.79
63204;BME280;49297;43.210;27.914;2022-09-09T00:38:18;101408.25;;;21.66;57.32
63204;BME280;49297;43.210;27.914;2022-09-09T00:40:51;101412.78;;;21.65;57.42
63204;BME280;49297;43.210;27.914;2022-09-09T00:43:57;101408.25;;;21.66;57.66
63204;BME280;49297;43.210;27.914;2022-09-09T00:52:26;101401.38;;;21.63;58.30
63204;BME280;49297;43.210;27.914;2022-09-09T00:55:20;101397.22;;;21.61;57.89
63204;BME280;49297;43.210;27.914;2022-09-09T00:57:51;101385.16;;;21.57;57.95
63204;BME280;49297;43.210;27.914;2022-09-09T01:00:22;101390.09;;;21.53;58.42
63204;BME280;49297;43.210;27.914;2022-09-09T01:08:09;101394.34;;;21.41;58.55
63204;BME280;49297;43.210;27.914;2022-09-09T01:13:14;101378.28;;;21.33;59.01
63204;BME280;49297;43.210;27.914;2022-09-09T01:15:44;101377.84;;;21.29;59.29
63204;BME280;49297;43.210;27.914;2022-09-09T01:18:13;101385.28;;;21.27;59.26
63204;BME280;49297;43.210;27.914;2022-09-09T01:28:44;101391.16;;;21.16;59.55
63204;BME280;49297;43.210;27.914;2022-09-09T01:31:15;101395.09;;;21.13;59.10
63204;BME280;49297;43.210;27.914;2022-09-09T01:33:42;101397.97;;;21.11;59.65
63204;BME280;49297;43.210;27.914;2022-09-09T01:36:21;101394.63;;;21.09;59.71
63204;BME280;49297;43.210;27.914;2022-09-09T01:38:49;101385.09;;;21.07;59.70
63204;BME280;49297;43.210;27.914;2022-09-09T01:41:15;101380.91;;;21.04;59.63
63204;BME280;49297;43.210;27.914;2022-09-09T01:43:41;101382.13;;;21.02;59.81
63204;BME280;49297;43.210;27.914;2022-09-09T01:46:07;101389.75;;;20.98;59.72
63204;BME280;49297;43.210;27.914;2022-09-09T01:48:33;101389.94;;;20.97;59.96
63204;BME280;49297;43.210;27.914;2022-09-09T01:50:59;101386.63;;;20.95;59.75
63204;BME280;49297;43.210;27.914;2022-09-09T01:53:25;101383.25;;;20.92;59.91
63204;BME280;49297;43.210;27.914;2022-09-09T01:56:02;101387.81;;;20.92;60.24
63204;BME280;49297;43.210;27.914;2022-09-09T02:01:22;101393.56;;;20.89;60.19
63204;BME280;49297;43.210;27.914;2022-09-09T02:03:57;101385.03;;;20.85;59.97
63204;BME280;49297;43.210;27.914;2022-09-09T02:06:27;101382.56;;;20.84;60.25
63204;BME280;49297;43.210;27.914;2022-09-09T02:08:57;101394.50;;;20.81;60.26
63204;BME280;49297;43.210;27.914;2022-09-09T02:14:23;101402.59;;;20.81;60.35
63204;BME280;49297;43.210;27.914;2022-09-09T02:16:55;101389.50;;;20.78;60.64
63204;BME280;49297;43.210;27.914;2022-09-09T02:19:32;101391.38;;;20.78;60.71
63204;BME280;49297;43.210;27.914;2022-09-09T02:22:00;101399.63;;;20.76;60.71
63204;BME280;49297;43.210;27.914;2022-09-09T02:24:29;101396.28;;;20.74;60.89
63204;BME280;49297;43.210;27.914;2022-09-09T02:26:57;101394.81;;;20.71;60.87
63204;BME280;49297;43.210;27.914;2022-09-09T02:29:29;101395.38;;;20.67;61.13
63204;BME280;49297;43.210;27.914;2022-09-09T02:31:58;101391.88;;;20.66;61.14
63204;BME280;49297;43.210;27.914;2022-09-09T02:34:29;101392.88;;;20.65;61.30
63204;BME280;49297;43.210;27.914;2022-09-09T02:36:57;101393.91;;;20.64;61.51
63204;BME280;49297;43.210;27.914;2022-09-09T02:39:23;101391.22;;;20.64;61.22
63204;BME280;49297;43.210;27.914;2022-09-09T02:41:48;101385.16;;;20.62;61.58
63204;BME280;49297;43.210;27.914;2022-09-09T02:44:18;101389.53;;;20.63;61.50
63204;BME280;49297;43.210;27.914;2022-09-09T02:54:38;101387.19;;;20.60;61.86
63204;BME280;49297;43.210;27.914;2022-09-09T02:57:11;101387.38;;;20.59;61.70
63204;BME280;49297;43.210;27.914;2022-09-09T02:59:38;101386.53;;;20.58;62.00
63204;BME280;49297;43.210;27.914;2022-09-09T03:02:04;101389.22;;;20.58;61.65
63204;BME280;49297;43.210;27.914;2022-09-09T03:04:30;101397.31;;;20.58;61.87
63204;BME280;49297;43.210;27.914;2022-09-09T03:06:57;101399.16;;;20.58;61.97
63204;BME280;49297;43.210;27.914;2022-09-09T03:09:24;101390.63;;;20.54;62.25
63204;BME280;49297;43.210;27.914;2022-09-09T03:11:51;101393.31;;;20.54;62.04
63204;BME280;49297;43.210;27.914;2022-09-09T03:16:58;101392.88;;;20.50;62.34
63204;BME280;49297;43.210;27.914;2022-09-09T03:19:26;101399.06;;;20.51;62.21
63204;BME280;49297;43.210;27.914;2022-09-09T03:21:53;101403.63;;;20.50;62.40
63204;BME280;49297;43.210;27.914;2022-09-09T03:24:19;101407.97;;;20.51;62.40
63204;BME280;49297;43.210;27.914;2022-09-09T03:26:45;101404.44;;;20.51;62.34
63204;BME280;49297;43.210;27.914;2022-09-09T03:29:12;101403.81;;;20.49;62.50
63204;BME280;49297;43.210;27.914;2022-09-09T03:31:38;101401.31;;;20.47;62.48
63204;BME280;49297;43.210;27.914;2022-09-09T03:34:04;101403.16;;;20.47;62.48
63204;BME280;49297;43.210;27.914;2022-09-09T03:36:31;101393.22;;;20.47;62.53
63204;BME280;49297;43.210;27.914;2022-09-09T03:38:57;101394.06;;;20.48;62.62
63204;BME280;49297;43.210;27.914;2022-09-09T03:41:23;101398.25;;;20.50;62.48
63204;BME280;49297;43.210;27.914;2022-09-09T03:43:50;101393.88;;;20.49;62.58
63204;BME280;49297;43.210;27.914;2022-09-09T03:46:21;101400.28;;;20.48;62.84
63204;BME280;49297;43.210;27.914;2022-09-09T03:48:47;101400.09;;;20.50;62.77
63204;BME280;49297;43.210;27.914;2022-09-09T03:51:13;101393.88;;;20.49;62.83
63204;BME280;49297;43.210;27.914;2022-09-09T03:53:39;101399.06;;;20.51;63.00
63204;BME280;49297;43.210;27.914;2022-09-09T03:56:06;101396.38;;;20.51;62.75
63204;BME280;49297;43.210;27.914;2022-09-09T03:58:37;101400.75;;;20.52;62.52
63204;BME280;49297;43.210;27.914;2022-09-09T04:01:06;101399.06;;;20.51;62.86
63204;BME280;49297;43.210;27.914;2022-09-09T04:03:34;101392.88;;;20.50;63.06
63204;BME280;49297;43.210;27.914;2022-09-09T04:06:04;101393.06;;;20.49;62.95
63204;BME280;49297;43.210;27.914;2022-09-09T04:08:30;101397.59;;;20.48;63.18
63204;BME280;49297;43.210;27.914;2022-09-09T04:10:59;101401.94;;;20.49;63.05
63204;BME280;49297;43.210;27.914;2022-09-09T04:13:27;101403.63;;;20.50;63.21
63204;BME280;49297;43.210;27.914;2022-09-09T04:18:23;101400.56;;;20.53;63.44
63204;BME280;49297;43.210;27.914;2022-09-09T04:20:50;101399.53;;;20.54;63.43
63204;BME280;49297;43.210;27.914;2022-09-09T04:23:17;101406.19;;;20.59;63.50
63204;BME280;49297;43.210;27.914;2022-09-09T04:25:49;101394.28;;;20.61;63.31
63204;BME280;49297;43.210;27.914;2022-09-09T04:28:16;101405.50;;;20.65;63.18
63204;BME280;49297;43.210;27.914;2022-09-09T04:30:43;101400.75;;;20.67;63.18
63204;BME280;49297;43.210;27.914;2022-09-09T04:33:09;101401.22;;;20.70;63.12
63204;BME280;49297;43.210;27.914;2022-09-09T04:35:36;101402.50;;;20.75;63.36
63204;BME280;49297;43.210;27.914;2022-09-09T04:38:03;101417.25;;;20.79;63.02
63204;BME280;49297;43.210;27.914;2022-09-09T04:40:30;101415.03;;;20.82;63.19
63204;BME280;49297;43.210;27.914;2022-09-09T04:42:59;101418.00;;;20.87;63.02
63204;BME280;49297;43.210;27.914;2022-09-09T04:45:25;101416.41;;;20.93;62.85
63204;BME280;49297;43.210;27.914;2022-09-09T04:47:52;101409.41;;;20.99;62.98
63204;BME280;49297;43.210;27.914;2022-09-09T04:50:18;101410.50;;;21.04;62.87
63204;BME280;49297;43.210;27.914;2022-09-09T04:52:44;101409.38;;;21.14;62.63
63204;BME280;49297;43.210;27.914;2022-09-09T04:55:10;101400.34;;;21.21;62.28
63204;BME280;49297;43.210;27.914;2022-09-09T04:57:39;101400.41;;;21.28;62.10
63204;BME280;49297;43.210;27.914;2022-09-09T05:00:05;101403.81;;;21.37;62.35
63204;BME280;49297;43.210;27.914;2022-09-09T05:02:31;101405.38;;;21.46;62.00
63204;BME280;49297;43.210;27.914;2022-09-09T05:04:58;101408.56;;;21.56;61.82
63204;BME280;49297;43.210;27.914;2022-09-09T05:07:24;101409.09;;;21.66;61.73
63204;BME280;49297;43.210;27.914;2022-09-09T05:09:51;101415.44;;;21.80;61.30
63204;BME280;49297;43.210;27.914;2022-09-09T05:12:17;101417.19;;;21.95;60.80
63204;BME280;49297;43.210;27.914;2022-09-09T05:14:43;101413.75;;;22.08;60.64
63204;BME280;49297;43.210;27.914;2022-09-09T05:17:09;101407.19;;;22.17;60.54
63204;BME280;49297;43.210;27.914;2022-09-09T05:19:36;101408.31;;;22.29;60.14
63204;BME280;49297;43.210;27.914;2022-09-09T05:22:12;101410.69;;;22.39;59.96
63204;BME280;49297;43.210;27.914;2022-09-09T05:24:38;101406.59;;;22.50;59.67
63204;BME280;49297;43.210;27.914;2022-09-09T05:27:04;101416.38;;;22.57;59.93
63204;BME280;49297;43.210;27.914;2022-09-09T05:29:32;101409.94;;;22.65;59.91
63204;BME280;49297;43.210;27.914;2022-09-09T05:32:01;101409.38;;;22.70;59.56
63204;BME280;49297;43.210;27.914;2022-09-09T05:34:26;101402.94;;;22.77;59.33
63204;BME280;49297;43.210;27.914;2022-09-09T05:36:52;101403.81;;;22.85;59.27
63204;BME280;49297;43.210;27.914;2022-09-09T05:39:19;101396.13;;;22.88;59.23
63204;BME280;49297;43.210;27.914;2022-09-09T05:41:44;101399.06;;;22.93;58.99
63204;BME280;49297;43.210;27.914;2022-09-09T05:44:10;101397.22;;;23.00;58.96
63204;BME280;49297;43.210;27.914;2022-09-09T05:46:36;101384.59;;;23.08;58.78
63204;BME280;49297;43.210;27.914;2022-09-09T05:49:05;101390.44;;;23.18;58.92
63204;BME280;49297;43.210;27.914;2022-09-09T05:51:31;101392.09;;;23.26;58.44
63204;BME280;49297;43.210;27.914;2022-09-09T05:53:58;101398.53;;;23.31;58.81
63204;BME280;49297;43.210;27.914;2022-09-09T05:56:26;101386.72;;;23.39;58.90
63204;BME280;49297;43.210;27.914;2022-09-09T05:58:53;101390.47;;;23.45;59.12
63204;BME280;49297;43.210;27.914;2022-09-09T06:01:25;101388.38;;;23.47;59.25
63204;BME280;49297;43.210;27.914;2022-09-09T06:03:52;101389.44;;;23.52;59.08
63204;BME280;49297;43.210;27.914;2022-09-09T06:06:20;101393.81;;;23.60;58.96
63204;BME280;49297;43.210;27.914;2022-09-09T06:08:54;101382.16;;;23.66;59.34
63204;BME280;49297;43.210;27.914;2022-09-09T06:11:26;101394.81;;;23.72;59.07
63204;BME280;49297;43.210;27.914;2022-09-09T06:13:52;101393.38;;;23.76;59.28
63204;BME280;49297;43.210;27.914;2022-09-09T06:16:21;101385.28;;;23.76;59.54
63204;BME280;49297;43.210;27.914;2022-09-09T06:18:49;101393.63;;;23.82;59.50
63204;BME280;49297;43.210;27.914;2022-09-09T06:21:23;101387.38;;;23.88;59.38
63204;BME280;49297;43.210;27.914;2022-09-09T06:23:50;101391.97;;;23.94;59.11
63204;BME280;49297;43.210;27.914;2022-09-09T06:26:24;101398.19;;;24.01;59.21
63204;BME280;49297;43.210;27.914;2022-09-09T06:28:52;101402.75;;;24.07;59.26
63204;BME280;49297;43.210;27.914;2022-09-09T06:31:20;101402.94;;;24.12;59.70
63204;BME280;49297;43.210;27.914;2022-09-09T06:33:48;101400.66;;;24.16;59.44
63204;BME280;49297;43.210;27.914;2022-09-09T06:36:19;101407.69;;;24.24;59.77
63204;BME280;49297;43.210;27.914;2022-09-09T06:38:46;101405.59;;;24.26;59.86
63204;BME280;49297;43.210;27.914;2022-09-09T06:41:15;101408.94;;;24.28;60.02
63204;BME280;49297;43.210;27.914;2022-09-09T06:43:41;101411.00;;;24.32;59.95
63204;BME280;49297;43.210;27.914;2022-09-09T06:48:36;101429.13;;;24.39;60.43
63204;BME280;49297;43.210;27.914;2022-09-09T06:51:10;101430.53;;;24.41;60.11
63204;BME280;49297;43.210;27.914;2022-09-09T06:53:38;101426.38;;;24.45;60.25
63204;BME280;49297;43.210;27.914;2022-09-09T06:58:39;101424.72;;;24.51;60.13
63204;BME280;49297;43.210;27.914;2022-09-09T07:01:13;101427.00;;;24.54;60.42
63204;BME280;49297;43.210;27.914;2022-09-09T07:03:40;101422.19;;;24.56;60.29
63204;BME280;49297;43.210;27.914;2022-09-09T07:06:06;101412.84;;;24.59;60.44
63204;BME280;49297;43.210;27.914;2022-09-09T07:08:33;101414.06;;;24.63;60.67
63204;BME280;49297;43.210;27.914;2022-09-09T07:11:05;101419.66;;;24.68;60.64
63204;BME280;49297;43.210;27.914;2022-09-09T07:13:32;101421.09;;;24.70;60.14
63204;BME280;49297;43.210;27.914;2022-09-09T07:16:08;101422.34;;;24.75;60.29
63204;BME280;49297;43.210;27.914;2022-09-09T07:18:34;101431.91;;;24.77;60.67
63204;BME280;49297;43.210;27.914;2022-09-09T07:21:01;101432.53;;;24.79;60.48
63204;BME280;49297;43.210;27.914;2022-09-09T07:23:28;101427.09;;;24.79;60.62
63204;BME280;49297;43.210;27.914;2022-09-09T07:25:54;101427.75;;;24.81;60.38
63204;BME280;49297;43.210;27.914;2022-09-09T07:28:20;101431.88;;;24.84;60.40
63204;BME280;49297;43.210;27.914;2022-09-09T07:30:54;101430.00;;;24.84;60.84
63204;BME280;49297;43.210;27.914;2022-09-09T07:33:20;101420.03;;;24.85;60.40
63204;BME280;49297;43.210;27.914;2022-09-09T07:35:46;101423.34;;;24.87;60.80
63204;BME280;49297;43.210;27.914;2022-09-09T07:38:12;101423.97;;;24.89;60.91
63204;BME280;49297;43.210;27.914;2022-09-09T07:40:37;101428.72;;;24.94;60.52
63204;BME280;49297;43.210;27.914;2022-09-09T07:43:04;101430.78;;;24.98;60.39
63204;BME280;49297;43.210;27.914;2022-09-09T07:45:29;101438.88;;;25.05;60.09
63204;BME280;49297;43.210;27.914;2022-09-09T07:47:58;101439.06;;;25.10;59.34
63204;BME280;49297;43.210;27.914;2022-09-09T07:50:25;101439.47;;;25.14;59.63
63204;BME280;49297;43.210;27.914;2022-09-09T07:52:51;101434.44;;;25.17;59.28
63204;BME280;49297;43.210;27.914;2022-09-09T07:55:20;101436.94;;;25.19;58.86
63204;BME280;49297;43.210;27.914;2022-09-09T07:57:46;101437.16;;;25.17;57.96
63204;BME280;49297;43.210;27.914;2022-09-09T08:00:12;101435.25;;;25.24;57.27
63204;BME280;49297;43.210;27.914;2022-09-09T08:02:40;101433.94;;;25.34;57.55
63204;BME280;49297;43.210;27.914;2022-09-09T08:05:06;101436.41;;;25.42;57.77
63204;BME280;49297;43.210;27.914;2022-09-09T08:07:32;101424.88;;;25.46;54.32
63204;BME280;49297;43.210;27.914;2022-09-09T08:09:58;101431.91;;;25.54;53.08
63204;BME280;49297;43.210;27.914;2022-09-09T08:12:24;101432.53;;;25.56;53.32
63204;BME280;49297;43.210;27.914;2022-09-09T08:14:49;101427.94;;;25.57;51.17
63204;BME280;49297;43.210;27.914;2022-09-09T08:17:17;101429.16;;;25.61;49.69
63204;BME280;49297;43.210;27.914;2022-09-09T08:19:42;101423.09;;;25.65;48.81
63204;BME280;49297;43.210;27.914;2022-09-09T08:22:10;101410.13;;;25.68;42.79
63204;BME280;49297;43.210;27.914;2022-09-09T08:24:35;101407.41;;;25.68;43.64
63204;BME280;49297;43.210;27.914;2022-09-09T08:27:01;101407.59;;;25.73;46.84
63204;BME280;49297;43.210;27.914;2022-09-09T08:29:27;101405.88;;;25.78;50.70
63204;BME280;49297;43.210;27.914;2022-09-09T08:31:56;101405.66;;;25.80;52.13
63204;BME280;49297;43.210;27.914;2022-09-09T08:34:24;101401.22;;;25.86;52.82
63204;BME280;49297;43.210;27.914;2022-09-09T08:36:53;101398.28;;;25.87;53.38
63204;BME280;49297;43.210;27.914;2022-09-09T08:39:20;101389.31;;;25.87;54.14
63204;BME280;49297;43.210;27.914;2022-09-09T08:50:41;101393.69;;;25.88;55.51
63204;BME280;49297;43.210;27.914;2022-09-09T08:53:17;101395.41;;;25.82;55.79
63204;BME280;49297;43.210;27.914;2022-09-09T08:58:25;101393.06;;;25.86;55.86
63204;BME280;49297;43.210;27.914;2022-09-09T09:11:53;101383.97;;;25.80;56.02
63204;BME280;49297;43.210;27.914;2022-09-09T09:14:23;101386.50;;;25.75;56.15
63204;BME280;49297;43.210;27.914;2022-09-09T09:16:54;101382.50;;;25.77;56.12
63204;BME280;49297;43.210;27.914;2022-09-09T09:19:22;101378.31;;;25.81;56.30
63204;BME280;49297;43.210;27.914;2022-09-09T09:24:24;101384.94;;;25.86;55.88
63204;BME280;49297;43.210;27.914;2022-09-09T09:29:19;101395.34;;;25.89;55.92
63204;BME280;49297;43.210;27.914;2022-09-09T09:31:55;101401.16;;;25.92;56.15
63204;BME280;49297;43.210;27.914;2022-09-09T09:34:22;101389.28;;;25.93;56.18
63204;BME280;49297;43.210;27.914;2022-09-09T09:36:54;101401.78;;;25.94;55.60
63204;BME280;49297;43.210;27.914;2022-09-09T09:39:24;101404.50;;;25.94;55.31
63204;BME280;49297;43.210;27.914;2022-09-09T09:41:53;101406.78;;;25.97;55.54
63204;BME280;49297;43.210;27.914;2022-09-09T09:44:30;101407.97;;;26.01;55.50
63204;BME280;49297;43.210;27.914;2022-09-09T09:47:13;101412.50;;;26.08;55.76
63204;BME280;49297;43.210;27.914;2022-09-09T09:50:00;101408.91;;;26.14;55.14
63204;BME280;49297;43.210;27.914;2022-09-09T09:52:31;101401.81;;;26.13;54.84
63204;BME280;49297;43.210;27.914;2022-09-09T09:54:58;101392.63;;;26.14;55.04
63204;BME280;49297;43.210;27.914;2022-09-09T09:57:29;101389.91;;;26.14;55.62
63204;BME280;49297;43.210;27.914;2022-09-09T10:00:17;101386.81;;;26.10;55.68
63204;BME280;49297;43.210;27.914;2022-09-09T10:02:45;101385.91;;;26.16;55.20
63204;BME280;49297;43.210;27.914;2022-09-09T10:05:25;101387.13;;;26.20;55.40
63204;BME280;49297;43.210;27.914;2022-09-09T10:13:25;101386.00;;;26.28;55.63
63204;BME280;49297;43.210;27.914;2022-09-09T10:16:23;101390.13;;;26.31;55.09
63204;BME280;49297;43.210;27.914;2022-09-09T10:19:04;101388.88;;;26.33;55.31
63204;BME280;49297;43.210;27.914;2022-09-09T10:24:30;101381.69;;;26.39;54.91
63204;BME280;49297;43.210;27.914;2022-09-09T10:29:58;101377.84;;;26.47;54.94
63204;BME280;49297;43.210;27.914;2022-09-09T10:35:31;101371.97;;;26.50;54.54
63204;BME280;49297;43.210;27.914;2022-09-09T10:52:56;101373.84;;;26.68;54.75
63204;BME280;49297;43.210;27.914;2022-09-09T10:55:02;101381.31;;;26.72;54.63
63204;BME280;49297;43.210;27.914;2022-09-09T10:57:46;101380.38;;;26.78;54.31
63204;BME280;49297;43.210;27.914;2022-09-09T11:00:21;101378.75;;;26.77;54.18
63204;BME280;49297;43.210;27.914;2022-09-09T11:03:02;101366.94;;;26.84;54.27
63204;BME280;49297;43.210;27.914;2022-09-09T11:08:26;101370.31;;;27.09;52.62
63204;BME280;49297;43.210;27.914;2022-09-09T11:16:50;101372.56;;;27.43;53.00
63204;BME280;49297;43.210;27.914;2022-09-09T11:19:37;101365.84;;;27.57;52.56
63204;BME280;49297;43.210;27.914;2022-09-09T11:22:27;101369.16;;;27.71;52.41
63204;BME280;49297;43.210;27.914;2022-09-09T11:28:40;101370.94;;;28.24;50.62
63204;BME280;49297;43.210;27.914;2022-09-09T11:42:16;101352.34;;;28.74;49.56
63204;BME280;49297;43.210;27.914;2022-09-09T11:44:43;101352.44;;;28.79;49.65
63204;BME280;49297;43.210;27.914;2022-09-09T11:47:28;101360.78;;;28.89;49.62
63204;BME280;49297;43.210;27.914;2022-09-09T11:52:43;101362.09;;;28.86;49.74
63204;BME280;49297;43.210;27.914;2022-09-09T11:55:25;101357.31;;;28.94;49.62
63204;BME280;49297;43.210;27.914;2022-09-09T11:58:05;101349.78;;;29.13;49.61
63204;BME280;49297;43.210;27.914;2022-09-09T12:00:44;101345.56;;;29.39;49.17
63204;BME280;49297;43.210;27.914;2022-09-09T12:24:14;101324.47;;;30.51;44.99
63204;BME280;49297;43.210;27.914;2022-09-09T12:27:26;101318.00;;;30.35;44.96
63204;BME280;49297;43.210;27.914;2022-09-09T12:30:12;101308.69;;;30.09;45.85
63204;BME280;49297;43.210;27.914;2022-09-09T12:33:46;101322.25;;;29.65;46.82
63204;BME280;49297;43.210;27.914;2022-09-09T12:36:47;101316.75;;;29.26;47.73
63204;BME280;49297;43.210;27.914;2022-09-09T12:39:25;101317.69;;;29.03;48.63
63204;BME280;49297;43.210;27.914;2022-09-09T12:42:01;101317.75;;;28.91;49.22
63204;BME280;49297;43.210;27.914;2022-09-09T12:44:35;101318.03;;;28.90;49.15
63204;BME280;49297;43.210;27.914;2022-09-09T12:47:11;101320.91;;;28.83;49.12
63204;BME280;49297;43.210;27.914;2022-09-09T12:52:59;101298.28;;;28.54;49.98
63204;BME280;49297;43.210;27.914;2022-09-09T13:02:32;101296.31;;;27.85;51.38
63204;BME280;49297;43.210;27.914;2022-09-09T13:05:44;101291.84;;;27.55;52.36
63204;BME280;49297;43.210;27.914;2022-09-09T13:08:28;101289.97;;;27.44;52.06
63204;BME280;49297;43.210;27.914;2022-09-09T13:11:10;101284.63;;;27.37;52.26
63204;BME280;49297;43.210;27.914;2022-09-09T13:14:30;101288.66;;;27.34;53.12
63204;BME280;49297;43.210;27.914;2022-09-09T13:18:26;101279.53;;;27.29;52.98
63204;BME280;49297;43.210;27.914;2022-09-09T13:20:57;101281.88;;;27.25;53.03
63204;BME280;49297;43.210;27.914;2022-09-09T13:23:53;101282.38;;;27.22;53.14
63204;BME280;49297;43.210;27.914;2022-09-09T13:31:05;101283.63;;;26.96;53.91
63204;BME280;49297;43.210;27.914;2022-09-09T13:45:57;101265.78;;;26.28;56.18
63204;BME280;49297;43.210;27.914;2022-09-09T13:48:24;101269.63;;;26.20;56.44
63204;BME280;49297;43.210;27.914;2022-09-09T13:50:58;101267.38;;;26.17;56.60
63204;BME280;49297;43.210;27.914;2022-09-09T13:53:25;101267.38;;;26.17;56.52
63204;BME280;49297;43.210;27.914;2022-09-09T13:55:53;101265.25;;;26.19;56.81
63204;BME280;49297;43.210;27.914;2022-09-09T13:58:19;101269.00;;;26.18;56.64
63204;BME280;49297;43.210;27.914;2022-09-09T14:00:48;101271.72;;;26.18;56.70
63204;BME280;49297;43.210;27.914;2022-09-09T14:03:15;101279.41;;;26.21;56.45
63204;BME280;49297;43.210;27.914;2022-09-09T14:05:41;101278.34;;;26.22;56.75
63204;BME280;49297;43.210;27.914;2022-09-09T14:08:25;101276.94;;;26.19;56.26
63204;BME280;49297;43.210;27.914;2022-09-09T14:10:51;101268.88;;;26.13;56.60
63204;BME280;49297;43.210;27.914;2022-09-09T14:13:17;101260.84;;;26.06;56.80
63204;BME280;49297;43.210;27.914;2022-09-09T14:15:43;101254.19;;;26.02;57.17
63204;BME280;49297;43.210;27.914;2022-09-09T14:18:12;101248.25;;;25.93;57.08
63204;BME280;49297;43.210;27.914;2022-09-09T14:20:39;101247.22;;;25.88;56.80
63204;BME280;49297;43.210;27.914;2022-09-09T14:23:04;101247.31;;;25.81;57.03
63204;BME280;49297;43.210;27.914;2022-09-09T14:25:30;101232.09;;;25.80;57.16
63204;BME280;49297;43.210;27.914;2022-09-09T14:27:56;101236.78;;;25.73;57.18
63204;BME280;49297;43.210;27.914;2022-09-09T14:30:22;101238.03;;;25.70;57.37
63204;BME280;49297;43.210;27.914;2022-09-09T14:32:48;101227.66;;;25.67;57.41
63204;BME280;49297;43.210;27.914;2022-09-09T14:35:14;101227.91;;;25.65;57.67
63204;BME280;49297;43.210;27.914;2022-09-09T14:37:39;101233.31;;;25.65;57.45
63204;BME280;49297;43.210;27.914;2022-09-09T14:40:06;101226.66;;;25.61;57.68
63204;BME280;49297;43.210;27.914;2022-09-09T14:42:32;101230.66;;;25.59;58.19
63204;BME280;49297;43.210;27.914;2022-09-09T14:44:58;101226.97;;;25.53;57.83
63204;BME280;49297;43.210;27.914;2022-09-09T14:47:24;101235.94;;;25.54;57.92
63204;BME280;49297;43.210;27.914;2022-09-09T14:49:49;101232.03;;;25.50;57.63
63204;BME280;49297;43.210;27.914;2022-09-09T14:55:06;101237.28;;;25.44;57.91
63204;BME280;49297;43.210;27.914;2022-09-09T14:57:32;101235.88;;;25.42;58.48
63204;BME280;49297;43.210;27.914;2022-09-09T15:00:00;101236.09;;;25.40;58.45
63204;BME280;49297;43.210;27.914;2022-09-09T15:02:25;101233.00;;;25.37;58.67
63204;BME280;49297;43.210;27.914;2022-09-09T15:04:51;101226.13;;;25.34;58.08
63204;BME280;49297;43.210;27.914;2022-09-09T15:07:18;101222.22;;;25.30;58.19
63204;BME280;49297;43.210;27.914;2022-09-09T15:09:45;101220.16;;;25.25;58.44
63204;BME280;49297;43.210;27.914;2022-09-09T15:12:13;101217.25;;;25.20;57.92
63204;BME280;49297;43.210;27.914;2022-09-09T15:14:39;101222.06;;;25.18;58.50
63204;BME280;49297;43.210;27.914;2022-09-09T15:17:05;101208.75;;;25.17;58.27
63204;BME280;49297;43.210;27.914;2022-09-09T15:19:31;101210.63;;;25.16;58.58
63204;BME280;49297;43.210;27.914;2022-09-09T15:21:57;101212.53;;;25.16;58.61
63204;BME280;49297;43.210;27.914;2022-09-09T15:24:25;101227.31;;;25.13;57.57
63204;BME280;49297;43.210;27.914;2022-09-09T15:26:55;101226.72;;;25.11;57.50
63204;BME280;49297;43.210;27.914;2022-09-09T15:29:21;101230.72;;;25.08;56.57
63204;BME280;49297;43.210;27.914;2022-09-09T15:31:47;101216.84;;;24.98;56.15
63204;BME280;49297;43.210;27.914;2022-09-09T15:34:13;101215.16;;;24.97;56.87
63204;BME280;49297;43.210;27.914;2022-09-09T15:36:43;101213.31;;;24.98;56.92
63204;BME280;49297;43.210;27.914;2022-09-09T15:39:12;101212.44;;;24.97;56.52
63204;BME280;49297;43.210;27.914;2022-09-09T15:41:42;101222.28;;;24.92;56.41
63204;BME280;49297;43.210;27.914;2022-09-09T15:44:12;101208.16;;;24.89;56.97
63204;BME280;49297;43.210;27.914;2022-09-09T15:46:41;101212.75;;;24.89;57.50
63204;BME280;49297;43.210;27.914;2022-09-09T15:49:09;101213.78;;;24.88;57.88
63204;BME280;49297;43.210;27.914;2022-09-09T15:51:37;101210.69;;;24.84;58.14
63204;BME280;49297;43.210;27.914;2022-09-09T15:54:03;101211.97;;;24.82;58.27
63204;BME280;49297;43.210;27.914;2022-09-09T15:56:29;101206.78;;;24.80;58.29
63204;BME280;49297;43.210;27.914;2022-09-09T15:58:59;101218.63;;;24.79;58.58
63204;BME280;49297;43.210;27.914;2022-09-09T16:01:26;101216.41;;;24.76;57.92
63204;BME280;49297;43.210;27.914;2022-09-09T16:03:52;101211.41;;;24.73;57.97
63204;BME280;49297;43.210;27.914;2022-09-09T16:06:21;101211.25;;;24.68;58.08
63204;BME280;49297;43.210;27.914;2022-09-09T16:08:49;101213.78;;;24.63;58.63